Time;durP1;ratioP1;P1;durP2;ratioP2;P2;SDS_P1;SDS_P2;PMS_P1;PMS_P2;Temp;Humidity;BMP_temperature;BMP_pressure;BME280_temperature;BME280_humidity;BME280_pressure;Samples;Min_cycle;Max_cycle;Signal;HPM_P1;HPM_P2
2023/04/28 00:00:08;;;;;;;5.68;3.45;;;;;;;;;;5056420;28;20028;-77
2023/04/28 00:02:34;;;;;;;8.90;3.72;;;;;;;;;;5057081;28;20088;-76
2023/04/28 00:04:59;;;;;;;6.03;3.67;;;;;;;;;;5057368;28;20479;-76
2023/04/28 00:07:25;;;;;;;7.30;4.00;;;;;;;;;;5057188;28;20094;-76
2023/04/28 00:09:51;;;;;;;6.82;4.30;;;;;;;;;;5058507;28;20399;-76
2023/04/28 00:12:16;;;;;;;8.05;4.35;;;;;;;;;;5061067;28;20037;-77
2023/04/28 00:14:41;;;;;;;8.45;4.10;;;;;;;;;;5076085;28;20566;-77
2023/04/28 00:17:09;;;;;;;9.38;4.32;;;;;;;;;;5063187;28;20048;-77
2023/04/28 00:19:34;;;;;;;7.25;4.43;;;;;;;;;;5070108;28;20067;-78
2023/04/28 00:22:00;;;;;;;8.30;4.43;;;;;;;;;;5076308;28;20021;-78
2023/04/28 00:24:25;;;;;;;7.20;4.75;;;;;;;;;;5075383;28;20024;-78
2023/04/28 00:26:51;;;;;;;9.77;5.03;;;;;;;;;;5075161;28;20084;-77
2023/04/28 00:29:16;;;;;;;9.48;5.15;;;;;;;;;;5081603;28;20025;-78
2023/04/28 00:31:43;;;;;;;8.15;5.10;;;;;;;;;;5074479;28;20045;-78
2023/04/28 00:34:12;;;;;;;7.22;4.63;;;;;;;;;;5074507;28;20007;-77
2023/04/28 00:36:38;;;;;;;8.45;4.57;;;;;;;;;;5074059;28;20029;-78
2023/04/28 00:39:03;;;;;;;7.65;4.53;;;;;;;;;;5073647;28;20064;-77
2023/04/28 00:41:29;;;;;;;10.60;5.30;;;;;;;;;;5073262;28;20033;-77
2023/04/28 00:43:54;;;;;;;11.77;5.70;;;;;;;;;;5047787;28;20036;-77
2023/04/28 00:46:21;;;;;;;9.57;5.72;;;;;;;;;;5060359;28;20029;-77
2023/04/28 00:48:47;;;;;;;9.25;5.90;;;;;;;;;;5060614;28;20025;-77
2023/04/28 00:51:12;;;;;;;15.45;6.05;;;;;;;;;;5042919;28;20025;-77
2023/04/28 00:53:38;;;;;;;10.30;6.03;;;;;;;;;;5060016;28;20468;-77
2023/04/28 00:56:03;;;;;;;9.07;6.80;;;;;;;;;;5063930;28;20044;-77
2023/04/28 00:58:29;;;;;;;11.68;7.25;;;;;;;;;;5083027;28;20025;-77
2023/04/28 01:00:54;;;;;;;;;;;;;;;;;;5082150;28;20033;-77
2023/04/28 01:03:20;;;;;;;10.77;8.40;;;;;;;;;;5075732;28;19909;-78
2023/04/28 01:05:45;;;;;;;10.73;8.45;;;;;;;;;;5072322;28;20041;-78
2023/04/28 01:08:11;;;;;;;13.07;9.48;;;;;;;;;;5057503;28;20001;-78
2023/04/28 01:10:36;;;;;;;;;;;;;;;;;;5072811;28;20033;-78
2023/04/28 01:13:09;;;;;;;11.80;9.20;;;;;;;;;;5083192;28;19952;-78
2023/04/28 01:15:35;;;;;;;12.45;9.25;;;;;;;;;;5088540;28;20028;-78
2023/04/28 01:18:00;;;;;;;;;;;;;;;;;;5089055;28;20223;-78
2023/04/28 01:20:26;;;;;;;10.82;7.25;;;;;;;;;;5086984;28;19912;-78
2023/04/28 01:22:52;;;;;;;11.98;8.98;;;;;;;;;;5072554;28;20051;-78
2023/04/28 01:25:18;;;;;;;11.13;8.00;;;;;;;;;;5070342;28;20047;-78
2023/04/28 01:27:43;;;;;;;9.48;7.13;;;;;;;;;;5071428;28;20009;-78
2023/04/28 01:30:09;;;;;;;8.18;5.55;;;;;;;;;;5071894;28;20105;-78
2023/04/28 01:32:34;;;;;;;6.93;5.75;;;;;;;;;;5072793;28;20032;-78
2023/04/28 01:35:01;;;;;;;9.93;6.40;;;;;;;;;;5074251;28;20106;-79
2023/04/28 01:37:27;;;;;;;10.80;7.85;;;;;;;;;;5056974;28;20005;-78
2023/04/28 01:39:52;;;;;;;8.40;7.40;;;;;;;;;;5061418;28;20025;-78
2023/04/28 01:42:18;;;;;;;;;;;;;;;;;;5078853;28;20029;-78
2023/04/28 01:44:43;;;;;;;10.85;8.60;;;;;;;;;;5073797;28;19923;-78
2023/04/28 01:47:09;;;;;;;13.23;9.13;;;;;;;;;;5076203;28;20029;-78
2023/04/28 01:49:35;;;;;;;10.25;8.77;;;;;;;;;;5077506;28;20032;-78
2023/04/28 01:52:00;;;;;;;13.15;8.70;;;;;;;;;;5060409;28;20460;-78
2023/04/28 01:54:26;;;;;;;11.25;10.02;;;;;;;;;;5077954;28;20045;-78
2023/04/28 01:56:52;;;;;;;;;;;;;;;;;;5077935;28;20076;-78
2023/04/28 01:59:19;;;;;;;25.60;10.35;;;;;;;;;;5078345;28;19916;-77
2023/04/28 02:01:45;;;;;;;12.38;11.07;;;;;;;;;;5077250;28;20021;-78
2023/04/28 02:04:10;;;;;;;15.30;11.48;;;;;;;;;;5077022;28;20040;-78
2023/04/28 02:06:36;;;;;;;14.27;11.18;;;;;;;;;;5082085;28;20024;-78
2023/04/28 02:09:02;;;;;;;17.90;11.98;;;;;;;;;;5080877;28;20038;-78
2023/04/28 02:11:27;;;;;;;17.48;11.43;;;;;;;;;;5076404;28;20033;-78
2023/04/28 02:13:55;;;;;;;15.27;10.95;;;;;;;;;;5060840;28;20056;-78
2023/04/28 02:16:20;;;;;;;16.08;10.43;;;;;;;;;;5062947;28;20031;-77
2023/04/28 02:18:48;;;;;;;15.27;10.40;;;;;;;;;;5064401;28;20029;-78
2023/04/28 02:21:14;;;;;;;;;;;;;;;;;;5081434;28;20010;-78
2023/04/28 02:23:39;;;;;;;11.02;9.15;;;;;;;;;;5079159;28;19896;-78
2023/04/28 02:26:05;;;;;;;;;;;;;;;;;;5070937;28;20026;-78
2023/04/28 02:28:30;;;;;;;14.07;9.52;;;;;;;;;;5070994;28;19912;-78
2023/04/28 02:31:03;;;;;;;14.90;9.98;;;;;;;;;;5076415;28;20021;-79
2023/04/28 02:33:29;;;;;;;13.23;9.90;;;;;;;;;;5059085;28;20037;-78
2023/04/28 02:35:55;;;;;;;;;;;;;;;;;;5075172;28;20093;-78
2023/04/28 02:38:20;;;;;;;12.48;9.18;;;;;;;;;;5075001;28;19924;-78
2023/04/28 02:40:46;;;;;;;;;;;;;;;;;;5076738;28;20025;-78
2023/04/28 02:43:11;;;;;;;11.45;9.95;;;;;;;;;;5076851;28;19955;-78
2023/04/28 02:45:37;;;;;;;14.75;9.60;;;;;;;;;;5075449;28;20032;-78
2023/04/28 02:48:03;;;;;;;12.82;9.05;;;;;;;;;;5075757;28;20534;-78
2023/04/28 02:50:28;;;;;;;13.50;8.85;;;;;;;;;;5075069;28;20036;-78
2023/04/28 02:52:54;;;;;;;;;;;;;;;;;;5076569;28;20040;-78
2023/04/28 02:55:23;;;;;;;11.82;8.70;;;;;;;;;;5075184;28;19913;-78
2023/04/28 02:57:49;;;;;;;11.65;8.50;;;;;;;;;;5058842;28;20029;-79
2023/04/28 03:00:14;;;;;;;;;;;;;;;;;;5076136;28;20011;-79
2023/04/28 03:02:45;;;;;;;11.50;8.80;;;;;;;;;;5075049;28;19962;-79
2023/04/28 03:05:35;;;;;;;12.05;8.82;;;;;;;;;;5076923;28;20093;-78
2023/04/28 03:08:01;;;;;;;;;;;;;;;;;;5074386;28;20029;-78
2023/04/28 03:10:26;;;;;;;13.25;8.82;;;;;;;;;;5074343;28;19907;-78
2023/04/28 03:12:51;;;;;;;;;;;;;;;;;;5076254;28;20101;-78
2023/04/28 03:15:17;;;;;;;10.85;8.38;;;;;;;;;;5070440;28;19913;-79
2023/04/28 03:17:42;;;;;;;;;;;;;;;;;;5089984;28;20025;-78
2023/04/28 03:20:08;;;;;;;10.82;8.98;;;;;;;;;;5076199;28;19908;-78
2023/04/28 03:22:33;;;;;;;10.20;8.80;;;;;;;;;;5074779;28;20075;-78
2023/04/28 03:24:59;;;;;;;;;;;;;;;;;;5081521;28;20036;-78
2023/04/28 03:27:25;;;;;;;11.17;8.93;;;;;;;;;;5068857;28;19921;-78
2023/04/28 03:29:53;;;;;;;12.38;9.02;;;;;;;;;;5052790;28;20029;-79
2023/04/28 03:32:19;;;;;;;12.35;8.90;;;;;;;;;;5084077;28;20108;-78
2023/04/28 03:34:45;;;;;;;;;;;;;;;;;;5071533;28;20124;-79
2023/04/28 03:37:10;;;;;;;11.68;9.43;;;;;;;;;;5059354;28;19913;-79
2023/04/28 03:39:35;;;;;;;14.73;9.80;;;;;;;;;;5069366;28;20487;-78
2023/04/28 03:42:01;;;;;;;14.38;12.65;;;;;;;;;;5047367;28;20427;-77
2023/04/28 03:44:36;;;;;;;14.02;10.90;;;;;;;;;;5056112;28;20026;-77
2023/04/28 03:47:02;;;;;;;13.10;10.73;;;;;;;;;;5076521;28;20025;-78
2023/04/28 03:49:28;;;;;;;13.35;10.50;;;;;;;;;;5076766;28;20016;-78
2023/04/28 03:51:53;;;;;;;12.95;10.38;;;;;;;;;;5058270;28;20036;-78
2023/04/28 03:54:19;;;;;;;13.95;10.50;;;;;;;;;;5056968;28;20039;-78
2023/04/28 03:56:45;;;;;;;;;;;;;;;;;;5074854;28;20055;-79
2023/04/28 03:59:11;;;;;;;12.98;10.82;;;;;;;;;;5050940;28;19916;-79
2023/04/28 04:01:36;;;;;;;13.07;11.18;;;;;;;;;;5064782;28;20025;-78
2023/04/28 04:04:02;;;;;;;12.38;10.75;;;;;;;;;;5074939;28;20020;-78
2023/04/28 04:06:28;;;;;;;;;;;;;;;;;;5055041;28;20061;-78
2023/04/28 04:08:53;;;;;;;11.80;10.55;;;;;;;;;;5059225;28;19913;-78
2023/04/28 04:11:20;;;;;;;13.55;11.05;;;;;;;;;;5057011;28;20055;-78
2023/04/28 04:13:45;;;;;;;15.27;11.63;;;;;;;;;;5073012;28;20037;-77
2023/04/28 04:16:15;;;;;;;14.13;11.52;;;;;;;;;;5066775;28;20067;-77
2023/04/28 04:18:40;;;;;;;13.20;10.57;;;;;;;;;;5050691;28;20100;-77
2023/04/28 04:21:26;;;;;;;13.32;10.98;;;;;;;;;;5075230;28;20043;-78
2023/04/28 04:23:52;;;;;;;12.15;9.80;;;;;;;;;;5074914;28;20017;-80
2023/04/28 04:26:17;;;;;;;;;;;;;;;;;;5067359;28;20009;-78
2023/04/28 04:28:43;;;;;;;12.75;11.00;;;;;;;;;;5061593;28;19948;-77
2023/04/28 04:31:09;;;;;;;;;;;;;;;;;;5058623;28;20115;-77
2023/04/28 04:33:36;;;;;;;14.95;12.38;;;;;;;;;;5060117;28;20370;-78
2023/04/28 04:36:02;;;;;;;13.68;11.98;;;;;;;;;;5072666;28;20033;-79
2023/04/28 04:38:28;;;;;;;14.77;10.77;;;;;;;;;;5046363;28;20039;-77
2023/04/28 04:40:55;;;;;;;14.02;10.88;;;;;;;;;;5063389;28;20464;-79
2023/04/28 04:43:21;;;;;;;14.02;12.35;;;;;;;;;;5039196;28;20031;-78
2023/04/28 04:45:49;;;;;;;17.88;11.80;;;;;;;;;;5037597;28;20043;-77
2023/04/28 04:48:14;;;;;;;;;;;;;;;;;;5039407;28;20037;-78
2023/04/28 04:50:40;;;;;;;14.15;12.65;;;;;;;;;;5060466;28;19916;-77
2023/04/28 04:53:05;;;;;;;14.77;12.98;;;;;;;;;;5064839;28;20096;-78
2023/04/28 04:55:32;;;;;;;16.52;12.60;;;;;;;;;;5064788;28;20044;-79
2023/04/28 04:57:57;;;;;;;;;;;;;;;;;;5063629;28;20044;-78
2023/04/28 05:00:38;;;;;;;15.55;12.05;;;;;;;;;;5064558;28;20326;-86
2023/04/28 05:03:05;;;;;;;;;;;;;;;;;;5042530;28;20025;-82
2023/04/28 05:05:31;;;;;;;15.68;12.18;;;;;;;;;;5044264;28;19956;-81
2023/04/28 05:08:08;;;;;;;15.57;12.68;;;;;;;;;;5053981;28;20033;-83
2023/04/28 05:10:34;;;;;;;;;;;;;;;;;;5042072;28;20028;-81
2023/04/28 05:13:00;;;;;;;16.25;12.80;;;;;;;;;;5054425;28;20359;-81
2023/04/28 05:15:26;;;;;;;16.00;13.02;;;;;;;;;;5042996;28;20036;-81
2023/04/28 05:18:15;;;;;;;14.82;13.20;;;;;;;;;;5049616;28;20041;-81
2023/04/28 05:20:41;;;;;;;16.83;13.18;;;;;;;;;;5038251;28;20067;-82
2023/04/28 05:23:06;;;;;;;;;;;;;;;;;;5055524;28;20052;-82
2023/04/28 05:25:32;;;;;;;15.25;13.65;;;;;;;;;;5057477;28;19922;-82
2023/04/28 05:28:03;;;;;;;18.27;14.23;;;;;;;;;;5052165;28;20033;-81
2023/04/28 05:30:29;;;;;;;16.70;13.60;;;;;;;;;;5054938;28;20503;-82
2023/04/28 05:32:54;;;;;;;;;;;;;;;;;;5036627;28;20036;-82
2023/04/28 05:35:20;;;;;;;18.33;13.45;;;;;;;;;;5054600;28;20411;-81
2023/04/28 05:37:45;;;;;;;;;;;;;;;;;;5037895;28;20027;-82
2023/04/28 05:40:11;;;;;;;21.77;15.02;;;;;;;;;;5038002;28;19955;-82
2023/04/28 05:42:36;;;;;;;;;;;;;;;;;;5054406;28;20702;-82
2023/04/28 05:45:02;;;;;;;16.88;15.07;;;;;;;;;;5054894;28;19959;-82
2023/04/28 05:47:29;;;;;;;;;;;;;;;;;;5037349;28;20021;-82
2023/04/28 05:49:54;;;;;;;15.35;13.75;;;;;;;;;;5038458;28;19913;-82
2023/04/28 05:52:20;;;;;;;17.35;14.95;;;;;;;;;;5055394;28;20070;-82
2023/04/28 05:54:45;;;;;;;;;;;;;;;;;;5059952;28;20418;-82
2023/04/28 05:57:11;;;;;;;13.73;12.25;;;;;;;;;;5055890;28;20023;-83
2023/04/28 05:59:37;;;;;;;14.73;13.13;;;;;;;;;;5043458;28;20024;-83
2023/04/28 06:02:03;;;;;;;;;;;;;;;;;;5056904;28;20545;-83
2023/04/28 06:04:28;;;;;;;14.93;13.25;;;;;;;;;;5060282;28;20333;-83
2023/04/28 06:06:54;;;;;;;13.60;11.88;;;;;;;;;;5040094;28;20052;-82
2023/04/28 06:09:20;;;;;;;14.30;11.73;;;;;;;;;;5043739;28;20032;-82
2023/04/28 06:11:45;;;;;;;11.30;9.80;;;;;;;;;;5047750;28;20043;-82
2023/04/28 06:14:11;;;;;;;12.85;10.10;;;;;;;;;;5060243;28;20056;-83
2023/04/28 06:16:36;;;;;;;8.40;7.53;;;;;;;;;;5056346;28;20037;-82
2023/04/28 06:19:02;;;;;;;;;;;;;;;;;;5044606;28;20024;-82
2023/04/28 06:21:28;;;;;;;9.18;7.63;;;;;;;;;;5056597;28;20501;-82
2023/04/28 06:23:53;;;;;;;;;;;;;;;;;;5042870;28;20024;-82
2023/04/28 06:26:19;;;;;;;8.65;7.78;;;;;;;;;;5049291;28;20416;-82
2023/04/28 06:28:44;;;;;;;9.77;7.88;;;;;;;;;;5048693;28;20044;-82
2023/04/28 06:31:10;;;;;;;8.27;6.88;;;;;;;;;;5052388;28;20025;-82
2023/04/28 06:33:35;;;;;;;;;;;;;;;;;;5054041;28;20044;-82
2023/04/28 06:36:01;;;;;;;10.23;8.00;;;;;;;;;;5052495;28;20422;-83
2023/04/28 06:38:26;;;;;;;8.45;7.60;;;;;;;;;;5053003;28;20027;-83
2023/04/28 06:40:52;;;;;;;6.18;5.47;;;;;;;;;;5052448;28;20029;-83
2023/04/28 06:43:18;;;;;;;6.80;6.10;;;;;;;;;;5020490;28;20082;-83
2023/04/28 06:45:54;;;;;;;7.88;6.55;;;;;;;;;;5052403;28;20475;-83
2023/04/28 06:48:24;;;;;;;7.72;6.93;;;;;;;;;;5036815;28;20033;-83
2023/04/28 06:50:50;;;;;;;7.18;6.30;;;;;;;;;;5035937;28;20033;-83
2023/04/28 06:53:15;;;;;;;8.23;7.43;;;;;;;;;;5035788;28;20031;-83
2023/04/28 06:55:41;;;;;;;8.27;7.05;;;;;;;;;;5031432;28;20210;-83
2023/04/28 06:58:07;;;;;;;8.45;7.10;;;;;;;;;;5050078;28;20572;-83
2023/04/28 07:00:32;;;;;;;8.10;6.45;;;;;;;;;;5035093;28;20432;-83
2023/04/28 07:02:58;;;;;;;8.55;6.72;;;;;;;;;;5052377;28;20021;-83
2023/04/28 07:05:23;;;;;;;8.18;6.90;;;;;;;;;;5030821;28;20059;-83
2023/04/28 07:07:49;;;;;;;9.15;6.93;;;;;;;;;;5049919;28;20514;-83
2023/04/28 07:10:15;;;;;;;7.57;6.15;;;;;;;;;;5053848;28;20037;-83
2023/04/28 07:12:40;;;;;;;8.43;7.35;;;;;;;;;;5053648;28;20036;-82
2023/04/28 07:15:06;;;;;;;10.15;7.93;;;;;;;;;;5052942;28;20055;-84
2023/04/28 07:17:32;;;;;;;6.60;5.28;;;;;;;;;;5038655;28;20040;-81
2023/04/28 07:19:57;;;;;;;7.97;7.18;;;;;;;;;;5053161;28;20116;-83
2023/04/28 07:22:23;;;;;;;6.57;5.70;;;;;;;;;;5038004;28;20043;-83
2023/04/28 07:24:48;;;;;;;9.80;8.57;;;;;;;;;;5054158;28;20126;-83
2023/04/28 07:27:14;;;;;;;11.93;10.73;;;;;;;;;;5050120;28;20566;-83
2023/04/28 07:29:39;;;;;;;10.15;8.43;;;;;;;;;;5051053;28;20175;-83
2023/04/28 07:32:07;;;;;;;11.10;9.98;;;;;;;;;;5051147;28;20036;-83
2023/04/28 07:34:32;;;;;;;9.35;6.40;;;;;;;;;;5050744;28;20044;-83
2023/04/28 07:36:58;;;;;;;8.73;7.93;;;;;;;;;;5051222;28;20048;-83
2023/04/28 07:39:23;;;;;;;9.77;8.77;;;;;;;;;;5033675;28;20491;-83
2023/04/28 07:41:49;;;;;;;9.50;8.60;;;;;;;;;;5051628;28;20030;-83
2023/04/28 07:44:14;;;;;;;9.75;8.75;;;;;;;;;;5049810;28;20380;-83
2023/04/28 07:46:40;;;;;;;10.93;9.27;;;;;;;;;;5051784;28;20032;-83
2023/04/28 07:49:07;;;;;;;9.57;8.43;;;;;;;;;;5033473;28;20488;-83
2023/04/28 07:51:32;;;;;;;8.27;7.38;;;;;;;;;;5050185;28;20112;-84
2023/04/28 07:53:58;;;;;;;8.30;7.22;;;;;;;;;;5049997;28;20116;-83
2023/04/28 07:56:23;;;;;;;11.50;9.70;;;;;;;;;;5050412;28;20368;-83
2023/04/28 07:58:49;;;;;;;11.90;10.55;;;;;;;;;;5049789;28;20509;-83
2023/04/28 08:01:14;;;;;;;11.95;9.50;;;;;;;;;;5051599;28;20112;-83
2023/04/28 08:03:40;;;;;;;9.45;7.93;;;;;;;;;;5051852;28;20033;-83
2023/04/28 08:06:05;;;;;;;13.95;12.43;;;;;;;;;;5054235;28;20525;-83
2023/04/28 08:08:31;;;;;;;11.10;8.95;;;;;;;;;;5052681;28;20037;-83
2023/04/28 08:10:57;;;;;;;11.43;9.73;;;;;;;;;;5055362;28;20067;-83
2023/04/28 08:13:23;;;;;;;13.73;12.10;;;;;;;;;;5046155;28;20530;-83
2023/04/28 08:15:48;;;;;;;9.57;7.63;;;;;;;;;;5056655;28;20032;-83
2023/04/28 08:18:14;;;;;;;14.10;11.13;;;;;;;;;;5054594;28;20040;-83
2023/04/28 08:20:40;;;;;;;12.60;9.93;;;;;;;;;;5057075;28;20020;-83
2023/04/28 08:23:06;;;;;;;12.88;11.05;;;;;;;;;;5053421;28;20040;-83
2023/04/28 08:25:31;;;;;;;17.35;8.30;;;;;;;;;;5052548;28;20267;-84
2023/04/28 08:27:57;;;;;;;19.75;8.93;;;;;;;;;;5050288;28;20061;-83
2023/04/28 08:30:23;;;;;;;40.83;9.18;;;;;;;;;;5050952;28;20071;-83
2023/04/28 08:32:48;;;;;;;8.20;6.78;;;;;;;;;;5049586;28;20079;-84
2023/04/28 08:35:14;;;;;;;;;;;;;;;;;;5063913;28;20040;-84
2023/04/28 08:37:40;;;;;;;15.30;8.43;;;;;;;;;;5068030;28;20021;-83
2023/04/28 08:40:11;;;;;;;12.25;7.28;;;;;;;;;;5066762;28;20047;-83
2023/04/28 08:42:36;;;;;;;10.65;7.85;;;;;;;;;;5068284;28;20028;-83
2023/04/28 08:45:05;;;;;;;9.23;6.30;;;;;;;;;;5051056;28;20040;-83
2023/04/28 08:47:34;;;;;;;11.60;7.88;;;;;;;;;;5070196;28;20036;-83
2023/04/28 08:50:04;;;;;;;12.80;7.15;;;;;;;;;;5056023;28;20511;-83
2023/04/28 08:52:30;;;;;;;10.98;6.68;;;;;;;;;;5073490;28;20044;-84
2023/04/28 08:54:57;;;;;;;9.20;6.75;;;;;;;;;;5054429;28;20021;-83
2023/04/28 08:57:22;;;;;;;8.45;4.43;;;;;;;;;;5073110;28;20071;-83
2023/04/28 08:59:48;;;;;;;;;;;;;;;;;;5071320;28;20044;-83
2023/04/28 09:02:13;;;;;;;7.07;4.25;;;;;;;;;;5071777;28;19997;-82
2023/04/28 09:04:38;;;;;;;;;;;;;;;;;;5054681;28;20432;-83
2023/04/28 09:07:09;;;;;;;9.00;5.38;;;;;;;;;;5066898;28;19972;-83
2023/04/28 09:09:35;;;;;;;5.88;3.97;;;;;;;;;;5062770;28;20064;-83
2023/04/28 09:12:01;;;;;;;6.60;4.85;;;;;;;;;;5068235;28;20079;-83
2023/04/28 09:14:26;;;;;;;5.28;3.65;;;;;;;;;;5063174;28;20063;-83
2023/04/28 09:16:52;;;;;;;8.18;6.75;;;;;;;;;;5070032;28;20112;-83
2023/04/28 09:19:18;;;;;;;10.85;6.90;;;;;;;;;;5064205;28;20060;-83
2023/04/28 09:21:47;;;;;;;9.60;8.05;;;;;;;;;;5053902;28;20017;-83
2023/04/28 09:24:24;;;;;;;9.52;7.90;;;;;;;;;;5068892;28;20044;-83
2023/04/28 09:26:50;;;;;;;8.05;6.53;;;;;;;;;;5052301;28;20033;-83
2023/04/28 09:29:15;;;;;;;6.18;4.47;;;;;;;;;;5053360;28;20476;-83
2023/04/28 09:31:41;;;;;;;;;;;;;;;;;;5054424;28;20044;-84
2023/04/28 09:34:08;;;;;;;5.10;3.83;;;;;;;;;;5053707;28;19999;-84
2023/04/28 09:36:33;;;;;;;6.10;3.70;;;;;;;;;;5036573;28;20550;-83
2023/04/28 09:38:59;;;;;;;;;;;;;;;;;;5054469;28;20025;-83
2023/04/28 09:41:40;;;;;;;6.38;2.75;;;;;;;;;;5054947;28;20440;-83
2023/04/28 09:44:13;;;;;;;2.55;1.70;;;;;;;;;;5053025;28;20490;-83
2023/04/28 09:46:39;;;;;;;4.13;2.38;;;;;;;;;;5035466;28;20527;-82
2023/04/28 09:49:04;;;;;;;;;;;;;;;;;;5016511;28;20029;-84
2023/04/28 09:51:30;;;;;;;3.22;2.10;;;;;;;;;;5051725;28;20003;-83
2023/04/28 09:53:58;;;;;;;;;;;;;;;;;;5036683;28;20067;-84
2023/04/28 09:56:25;;;;;;;2.97;1.60;;;;;;;;;;5036072;28;20011;-80
2023/04/28 09:58:51;;;;;;;2.97;1.80;;;;;;;;;;5035531;28;20515;-81
2023/04/28 10:01:16;;;;;;;;;;;;;;;;;;5037545;28;20028;-80
2023/04/28 10:03:42;;;;;;;3.20;1.95;;;;;;;;;;5052576;28;19912;-81
2023/04/28 10:06:07;;;;;;;2.70;1.80;;;;;;;;;;5062077;28;20036;-79
2023/04/28 10:08:33;;;;;;;2.92;1.40;;;;;;;;;;5065080;28;20031;-80
2023/04/28 10:10:58;;;;;;;;;;;;;;;;;;5058313;28;20048;-80
2023/04/28 10:13:24;;;;;;;2.85;1.52;;;;;;;;;;5052589;28;20055;-80
2023/04/28 10:15:49;;;;;;;3.53;1.50;;;;;;;;;;5052134;28;20044;-80
2023/04/28 10:18:15;;;;;;;;;;;;;;;;;;5037437;28;20099;-80
2023/04/28 10:20:41;;;;;;;3.58;1.70;;;;;;;;;;5052904;28;19920;-80
2023/04/28 10:23:29;;;;;;;3.28;1.52;;;;;;;;;;5036452;28;20065;-81
2023/04/28 10:25:58;;;;;;;6.15;4.07;;;;;;;;;;5024373;28;20033;-81
2023/04/28 10:28:25;;;;;;;4.07;1.90;;;;;;;;;;5029369;28;20488;-81
2023/04/28 10:31:10;;;;;;;3.65;2.00;;;;;;;;;;5051501;28;20040;-81
2023/04/28 10:33:35;;;;;;;3.10;2.10;;;;;;;;;;5051340;28;20072;-81
2023/04/28 10:36:02;;;;;;;;;;;;;;;;;;5051551;28;20065;-82
2023/04/28 10:38:28;;;;;;;2.85;2.53;;;;;;;;;;5052984;28;19913;-81
2023/04/28 10:40:53;;;;;;;;;;;;;;;;;;5051004;28;20368;-82
2023/04/28 10:43:18;;;;;;;3.33;2.40;;;;;;;;;;5055989;28;20318;-82
2023/04/28 10:45:53;;;;;;;4.35;3.30;;;;;;;;;;5052934;28;20045;-81
2023/04/28 10:48:19;;;;;;;2.83;2.38;;;;;;;;;;5065298;28;20033;-81
2023/04/28 10:50:45;;;;;;;;;;;;;;;;;;5037452;28;20069;-81
2023/04/28 10:53:10;;;;;;;4.40;2.05;;;;;;;;;;5066241;28;20009;-81
2023/04/28 10:55:36;;;;;;;;;;;;;;;;;;5045070;28;20448;-79
2023/04/28 10:58:13;;;;;;;3.30;1.90;;;;;;;;;;5065286;28;19916;-81
2023/04/28 11:00:39;;;;;;;2.28;1.60;;;;;;;;;;5048434;28;20032;-80
2023/04/28 11:03:05;;;;;;;1.95;1.60;;;;;;;;;;5033961;28;20028;-80
2023/04/28 11:05:33;;;;;;;3.00;1.77;;;;;;;;;;5033533;28;20028;-80
2023/04/28 11:08:32;;;;;;;3.38;1.50;;;;;;;;;;5050203;28;20063;-80
2023/04/28 11:11:13;;;;;;;3.60;1.50;;;;;;;;;;5000612;28;20049;-80
2023/04/28 11:13:39;;;;;;;1.80;1.20;;;;;;;;;;5048859;28;20057;-80
2023/04/28 11:16:04;;;;;;;1.55;1.10;;;;;;;;;;5049745;28;20040;-79
2023/04/28 11:18:42;;;;;;;2.30;1.05;;;;;;;;;;5058818;28;20071;-81
2023/04/28 11:21:08;;;;;;;1.58;1.15;;;;;;;;;;5060740;28;20507;-81
2023/04/28 11:23:34;;;;;;;2.13;1.20;;;;;;;;;;5048496;28;20020;-81
2023/04/28 11:25:59;;;;;;;1.60;1.10;;;;;;;;;;5058181;28;20377;-81
2023/04/28 11:28:25;;;;;;;2.53;1.20;;;;;;;;;;5051442;28;20162;-81
2023/04/28 11:30:50;;;;;;;;;;;;;;;;;;5052672;28;20124;-81
2023/04/28 11:33:16;;;;;;;7.50;5.78;;;;;;;;;;5051230;28;19912;-81
2023/04/28 11:35:42;;;;;;;2.67;1.52;;;;;;;;;;5049973;28;20029;-81
2023/04/28 11:38:07;;;;;;;4.35;1.50;;;;;;;;;;5033202;28;20025;-81
2023/04/28 11:40:32;;;;;;;2.22;1.42;;;;;;;;;;5053952;28;20065;-81
2023/04/28 11:42:58;;;;;;;2.97;1.33;;;;;;;;;;5050995;28;20029;-81
2023/04/28 11:45:24;;;;;;;1.83;1.27;;;;;;;;;;5033852;28;20033;-81
2023/04/28 11:47:49;;;;;;;;;;;;;;;;;;5059284;28;20031;-81
2023/04/28 11:50:14;;;;;;;1.73;1.30;;;;;;;;;;5055532;28;19919;-82
2023/04/28 11:52:49;;;;;;;1.77;1.17;;;;;;;;;;5036294;28;20091;-81
2023/04/28 11:55:15;;;;;;;3.40;1.40;;;;;;;;;;5062447;28;20526;-81
2023/04/28 11:57:40;;;;;;;2.70;1.17;;;;;;;;;;5043758;28;20025;-81
2023/04/28 12:00:06;;;;;;;;;;;;;;;;;;5049768;28;20034;-81
2023/04/28 12:02:32;;;;;;;3.95;1.60;;;;;;;;;;5051092;28;20023;-81
2023/04/28 12:05:04;;;;;;;2.45;1.10;;;;;;;;;;5037995;28;20037;-81
2023/04/28 12:07:29;;;;;;;1.60;1.13;;;;;;;;;;5047062;28;20040;-81
2023/04/28 12:10:10;;;;;;;3.03;1.30;;;;;;;;;;5032313;28;20066;-80
2023/04/28 12:12:36;;;;;;;1.83;1.13;;;;;;;;;;5060565;28;20037;-81
2023/04/28 12:15:04;;;;;;;1.77;1.15;;;;;;;;;;5032724;28;20115;-81
2023/04/28 12:17:36;;;;;;;1.60;1.05;;;;;;;;;;5050458;28;20029;-81
2023/04/28 12:20:11;;;;;;;1.67;1.20;;;;;;;;;;5050716;28;20041;-81
2023/04/28 12:22:43;;;;;;;1.20;0.90;;;;;;;;;;5033166;28;20052;-81
2023/04/28 12:25:09;;;;;;;1.33;1.20;;;;;;;;;;5054070;28;20040;-79
2023/04/28 12:27:37;;;;;;;2.28;1.30;;;;;;;;;;5048462;28;20021;-80
2023/04/28 12:30:04;;;;;;;1.35;0.95;;;;;;;;;;5048708;28;20033;-80
2023/04/28 12:32:39;;;;;;;2.20;1.30;;;;;;;;;;5048988;28;20048;-81
2023/04/28 12:35:05;;;;;;;2.85;2.00;;;;;;;;;;5049160;28;20448;-81
2023/04/28 12:37:31;;;;;;;1.90;1.20;;;;;;;;;;5032300;28;20029;-80
2023/04/28 12:39:57;;;;;;;1.90;1.00;;;;;;;;;;5048869;28;20033;-80
2023/04/28 12:42:23;;;;;;;3.70;1.15;;;;;;;;;;5051320;28;20035;-80
2023/04/28 12:44:49;;;;;;;2.95;2.00;;;;;;;;;;5033280;28;20067;-80
2023/04/28 12:47:15;;;;;;;4.60;2.80;;;;;;;;;;5048761;28;20021;-80
2023/04/28 12:49:40;;;;;;;2.65;2.08;;;;;;;;;;5049149;28;20395;-80
2023/04/28 12:52:06;;;;;;;5.20;2.40;;;;;;;;;;5048738;28;20032;-80
2023/04/28 12:54:32;;;;;;;4.07;2.30;;;;;;;;;;5048890;28;20411;-79
2023/04/28 12:56:57;;;;;;;2.67;1.88;;;;;;;;;;5050359;28;20027;-80
2023/04/28 12:59:22;;;;;;;;;;;;;;;;;;5037896;28;20029;-79
2023/04/28 13:01:49;;;;;;;2.90;1.60;;;;;;;;;;5056002;28;20394;-79
2023/04/28 13:04:15;;;;;;;3.60;1.90;;;;;;;;;;5048997;28;20029;-80
2023/04/28 13:06:42;;;;;;;;;;;;;;;;;;5033896;28;20025;-79
2023/04/28 13:09:12;;;;;;;2.85;2.13;;;;;;;;;;5051185;28;20379;-79
2023/04/28 13:11:37;;;;;;;2.70;1.73;;;;;;;;;;5049438;28;20430;-79
2023/04/28 13:14:03;;;;;;;;;;;;;;;;;;5051515;28;20064;-78
2023/04/28 13:16:29;;;;;;;2.22;1.67;;;;;;;;;;5051086;28;19924;-80
2023/04/28 13:18:55;;;;;;;;;;;;;;;;;;5034764;28;20033;-80
2023/04/28 13:21:21;;;;;;;2.42;1.40;;;;;;;;;;5051201;28;19909;-81
2023/04/28 13:23:46;;;;;;;;;;;;;;;;;;5049885;28;20025;-80
2023/04/28 13:26:12;;;;;;;2.15;1.40;;;;;;;;;;5051960;28;19919;-80
2023/04/28 13:28:37;;;;;;;;;;;;;;;;;;5062010;28;20041;-81
2023/04/28 13:31:02;;;;;;;2.17;1.23;;;;;;;;;;5059425;28;19908;-82
2023/04/28 13:33:30;;;;;;;2.85;1.50;;;;;;;;;;5056998;28;20039;-81
2023/04/28 13:35:58;;;;;;;2.80;1.73;;;;;;;;;;5055810;28;20025;-81
2023/04/28 13:38:24;;;;;;;1.75;1.25;;;;;;;;;;5058864;28;20078;-80
2023/04/28 13:40:50;;;;;;;2.10;1.00;;;;;;;;;;5035417;28;20480;-81
2023/04/28 13:43:15;;;;;;;;;;;;;;;;;;5038095;28;20082;-82
2023/04/28 13:45:41;;;;;;;2.60;1.75;;;;;;;;;;5056558;28;19978;-81
2023/04/28 13:48:06;;;;;;;;;;;;;;;;;;5057393;28;20058;-81
2023/04/28 13:50:31;;;;;;;2.30;1.60;;;;;;;;;;5056752;28;19912;-81
2023/04/28 13:52:57;;;;;;;;;;;;;;;;;;5058954;28;20033;-81
2023/04/28 13:55:26;;;;;;;2.13;1.20;;;;;;;;;;5056244;28;20290;-81
2023/04/28 13:57:52;;;;;;;2.35;1.50;;;;;;;;;;5041514;28;20502;-81
2023/04/28 14:00:19;;;;;;;2.30;1.50;;;;;;;;;;5055915;28;20356;-81
2023/04/28 14:02:45;;;;;;;2.42;1.58;;;;;;;;;;5059158;28;20033;-81
2023/04/28 14:05:10;;;;;;;;;;;;;;;;;;5039689;28;20479;-81
2023/04/28 14:07:36;;;;;;;2.10;1.33;;;;;;;;;;5058415;28;19916;-81
2023/04/28 14:10:01;;;;;;;;;;;;;;;;;;5056091;28;20095;-80
2023/04/28 14:12:27;;;;;;;4.78;1.67;;;;;;;;;;5058646;28;19923;-81
2023/04/28 14:14:52;;;;;;;;;;;;;;;;;;5039400;28;20110;-81
2023/04/28 14:17:18;;;;;;;2.72;1.60;;;;;;;;;;5057851;28;19938;-82
2023/04/28 14:19:44;;;;;;;;;;;;;;;;;;5036664;28;20036;-80
2023/04/28 14:22:10;;;;;;;2.58;1.38;;;;;;;;;;5054888;28;19912;-81
2023/04/28 14:24:36;;;;;;;;;;;;;;;;;;5056994;28;20391;-82
2023/04/28 14:27:02;;;;;;;3.10;1.33;;;;;;;;;;5036009;28;19916;-80
2023/04/28 14:29:28;;;;;;;2.30;1.30;;;;;;;;;;5063733;28;20094;-79
2023/04/28 14:31:53;;;;;;;2.00;1.20;;;;;;;;;;5034760;28;20099;-81
2023/04/28 14:34:18;;;;;;;;;;;;;;;;;;5051674;28;20025;-80
2023/04/28 14:36:45;;;;;;;3.25;1.60;;;;;;;;;;5050853;28;19924;-80
2023/04/28 14:39:11;;;;;;;8.18;2.40;;;;;;;;;;5053048;28;20071;-80
2023/04/28 14:41:36;;;;;;;;;;;;;;;;;;5036124;28;20644;-80
2023/04/28 14:44:01;;;;;;;3.70;1.80;;;;;;;;;;5051378;28;20011;-80
2023/04/28 14:46:27;;;;;;;;;;;;;;;;;;5036626;28;20086;-82
2023/04/28 14:48:53;;;;;;;3.25;1.27;;;;;;;;;;5053981;28;20385;-83
2023/04/28 14:51:18;;;;;;;;;;;;;;;;;;5056642;28;20043;-80
2023/04/28 14:53:43;;;;;;;2.42;1.42;;;;;;;;;;5052642;28;19915;-81